Latest Weather Observations for Viewbank

IDV60901

Issued at 8:05 pm EST Wednesday 16 April 2014 (issued every 10 minutes, with the page automatically refreshed every 10 minutes)

About weather observations | Map of Melbourne area stations | Latest observations for Melbourne area | Other Formats
Station Details ID: 086068 Name: VIEWBANK Lat: -37.74 Lon: 145.10 Height: 66.1 m
Data from the previous 72 hours. | See also: Recent months at Viewbank
Date/Time
EST
Tmp

°C
App
Tmp
°C
Dew
Point
°C
Rel
Hum
%
Delta-T

°C
Wind Press
QNH
hPa
Press
MSL
hPa
Rain
since
9 am
mm
Dir
 
Spd
km/h
Gust
km/h
Spd
kts
Gust
kts
16/08:00pm 15.7 16.1 11.3 75 2.4 SSW 0 0 0 0 1020.0 - 0.0
16/07:30pm 16.0 15.6 11.2 73 2.6 SSW 4 7 2 4 1019.8 - 0.0
16/07:00pm 16.4 15.7 11.3 72 2.8 SSW 6 9 3 5 1019.7 - 0.0
16/06:30pm 16.5 15.7 11.2 71 2.9 SW 6 9 3 5 1019.4 - 0.0
16/06:00pm 17.2 16.3 11.5 69 3.1 SW 7 11 4 6 1019.1 1019.0 0.0
16/05:30pm 17.7 16.5 11.5 67 3.4 SSW 9 15 5 8 1018.9 - 0.0
16/05:00pm 17.9 15.5 11.5 66 3.5 SW 15 20 8 11 1018.6 - 0.0
16/04:30pm 20.5 19.1 10.9 54 5.3 NW 9 17 5 9 1018.2 - 0.0
16/04:00pm 21.0 18.7 8.9 46 6.4 N 11 20 6 11 1017.9 - 0.0
16/03:30pm 21.3 19.1 9.5 47 6.3 NNE 11 19 6 10 1017.9 - 0.0
16/03:00pm 21.9 19.6 10.4 48 6.3 N 13 20 7 11 1018.1 1018.0 0.0
16/02:30pm 22.0 20.0 10.2 47 6.4 N 11 22 6 12 1018.1 - 0.0
16/02:00pm 21.5 18.8 9.1 45 6.6 N 13 22 7 12 1018.3 - 0.0
16/01:30pm 21.8 18.6 8.3 42 7.1 N 15 26 8 14 1018.5 - 0.0
16/01:00pm 21.5 18.8 9.1 45 6.6 N 13 22 7 12 1018.6 - 0.0
16/12:30pm 21.2 20.8 12.3 57 5.0 NNE 6 9 3 5 1019.2 - 0.0
16/12:00pm 19.0 18.6 12.5 66 3.6 NNE 6 11 3 6 1019.7 1019.6 0.0
16/11:30am 18.0 17.8 13.1 73 2.8 NE 6 9 3 5 1020.2 - 0.0
16/11:00am 15.7 15.2 12.8 83 1.6 ENE 7 11 4 6 1020.4 - 0.0
16/10:30am 14.0 13.8 13.5 97 0.3 ENE 7 13 4 7 1020.8 - 0.0
16/10:00am 13.5 12.9 13.5 100 0.0 NE 9 11 5 6 1021.1 - 0.0
16/09:30am 12.7 12.2 12.7 100 0.0 ENE 7 9 4 5 1021.3 - 0.0
16/09:00am 12.3 12.6 12.3 100 0.0 NNE 2 7 1 4 1021.3 1021.2 0.0
16/08:30am 11.5 11.6 11.5 100 0.0 N 2 6 1 3 1021.3 - 0.0
16/08:00am 10.9 10.4 10.9 100 0.0 NNE 4 7 2 4 1021.1 - 0.0
16/07:30am 10.4 9.8 10.4 100 0.0 NNE 4 7 2 4 1021.0 - 0.0
16/07:00am 9.8 9.4 9.8 100 0.0 NE 2 6 1 3 1020.9 - 0.0
16/06:30am 9.0 8.0 9.0 100 0.0 ENE 4 6 2 3 1020.8 - 0.0
16/06:00am 8.2 6.6 8.2 100 0.0 ENE 6 7 3 4 1020.9 1020.8 0.0
16/05:30am 8.0 6.2 8.0 100 0.0 ENE 7 9 4 5 1020.9 - 0.0
16/05:00am 8.4 6.9 8.4 100 0.0 ENE 6 7 3 4 1020.7 - 0.0
16/04:30am 8.5 8.2 8.5 100 0.0 CALM 0 0 0 0 1020.6 - 0.0
16/04:00am 8.9 8.3 8.9 100 0.0 NNE 2 6 1 3 1020.3 - 0.0
16/03:30am 9.3 8.0 9.3 100 0.0 NNE 6 7 3 4 1020.3 - 0.0
16/03:00am 9.3 8.4 9.3 100 0.0 NNE 4 7 2 4 1020.4 1020.3 0.0
16/02:30am 9.5 9.4 9.5 100 0.0 CALM 0 6 0 3 1020.7 - 0.0
16/02:00am 10.0 10.1 10.0 100 0.0 CALM 0 0 0 0 1021.0 - 0.0
16/01:30am 10.1 10.2 10.1 100 0.0 CALM 0 0 0 0 1021.5 - 0.0
16/01:00am 10.5 10.3 10.3 99 0.1 NNE 2 6 1 3 1021.4 - 0.0
16/12:30am 10.9 10.8 10.7 99 0.1 NNE 2 6 1 3 1021.5 - 0.0
16/12:00am 11.0 10.5 10.8 99 0.1 N 4 7 2 4 1021.5 1021.4 0.0
 
Date/Time
EST
Tmp

°C
App
Tmp
°C
Dew
Point
°C
Rel
Hum
%
Delta-T

°C
Wind Press
QNH
hPa
Press
MSL
hPa
Rain
since
9 am
mm
Dir
 
Spd
km/h
Gust
km/h
Spd
kts
Gust
kts
15/11:30pm 11.6 12.0 11.4 99 0.1 CALM 0 0 0 0 1021.7 - 0.0
15/11:00pm 12.2 12.8 11.9 98 0.2 CALM 0 0 0 0 1021.9 - 0.0
15/10:30pm 12.7 13.3 11.9 95 0.4 CALM 0 0 0 0 1022.2 - 0.0
15/10:00pm 13.3 13.7 11.2 87 1.1 CALM 0 0 0 0 1022.2 - 0.0
15/09:30pm 13.8 14.2 11.3 85 1.3 CALM 0 0 0 0 1022.3 - 0.0
15/09:00pm 14.2 14.2 11.2 82 1.6 SSE 2 9 1 5 1022.1 1022.0 0.0
15/08:30pm 14.6 13.4 11.7 83 1.6 SSW 9 15 5 8 1022.0 - 0.0
15/08:00pm 14.8 14.1 12.1 84 1.5 SW 7 11 4 6 1022.0 - 0.0
15/07:30pm 15.0 13.9 12.0 82 1.6 SW 9 11 5 6 1022.0 - 0.0
15/07:00pm 15.7 14.5 11.5 76 2.3 SSW 9 13 5 7 1021.9 - 0.0
15/06:30pm 16.4 14.3 11.1 71 2.9 SSW 13 20 7 11 1021.7 - 0.0
15/06:00pm 17.1 14.3 11.2 68 3.2 S 17 26 9 14 1021.3 1021.2 0.0
15/05:30pm 17.7 15.1 10.8 64 3.7 S 15 22 8 12 1021.0 - 0.0
15/05:00pm 18.9 16.9 10.2 57 4.7 S 11 19 6 10 1020.9 - 0.0
15/04:30pm 19.8 17.5 9.1 50 5.7 SSE 11 17 6 9 1020.9 - 0.0
15/04:00pm 20.6 19.0 8.9 47 6.2 SSE 7 11 4 6 1021.0 - 0.0
15/03:30pm 20.4 18.2 7.7 44 6.6 ESE 9 19 5 10 1021.3 - 0.0
15/03:00pm 20.4 17.9 8.4 46 6.3 S 11 20 6 11 1021.4 1021.3 0.0
15/02:30pm 20.9 18.4 8.2 44 6.6 S 11 19 6 10 1021.4 - 0.0
15/02:00pm 20.3 17.8 8.3 46 6.3 SE 11 19 6 10 1021.4 - 0.0
15/01:30pm 21.0 18.9 9.9 49 6.0 S 11 24 6 13 1021.6 - 0.0
15/01:00pm 19.9 18.0 9.2 50 5.7 SSE 9 17 5 9 1021.9 - 0.0
15/12:30pm 18.9 17.0 9.1 53 5.2 ESE 9 13 5 7 1022.4 - 0.0
15/12:00pm 18.5 17.0 9.0 54 5.0 SE 7 17 4 9 1022.7 1022.6 0.0
15/11:30am 18.6 16.6 8.6 52 5.2 ESE 9 15 5 8 1023.1 - 0.0
15/11:00am 17.7 15.9 9.3 58 4.4 E 9 11 5 6 1023.4 - 0.0
15/10:30am 17.2 14.9 9.1 59 4.2 E 11 15 6 8 1023.5 - 0.0
15/10:00am 15.3 14.1 9.4 68 3.1 N 6 9 3 5 1023.7 - 0.0
15/09:30am 13.2 12.9 10.0 81 1.7 ESE 2 6 1 3 1023.9 - 0.0
15/09:00am 11.2 11.1 9.6 90 0.8 CALM 0 6 0 3 1024.1 1024.0 0.0
15/08:30am 9.9 8.6 9.3 96 0.3 NE 6 7 3 4 1024.2 - 0.0
15/08:00am 8.5 7.0 8.4 99 0.0 NE 6 7 3 4 1023.9 - 0.0
15/07:30am 7.4 6.4 7.3 99 0.0 NE 2 6 1 3 1023.7 - 0.0
15/07:00am 7.2 6.5 7.1 99 0.0 CALM 0 0 0 0 1023.4 - 0.0
15/06:30am 7.7 6.4 7.6 99 0.0 E 4 7 2 4 1023.1 - 0.0
15/06:00am 7.4 6.4 7.3 99 0.0 NE 2 7 1 4 1023.0 1022.9 0.0
15/05:30am 7.7 7.1 7.6 99 0.0 CALM 0 0 0 0 1022.9 - 0.0
15/05:00am 8.2 7.8 8.1 99 0.0 CALM 0 6 0 3 1022.7 - 0.0
15/04:30am 8.6 8.3 8.5 99 0.0 CALM 0 0 0 0 1022.7 - 0.0
15/04:00am 8.9 8.6 8.8 99 0.0 CALM 0 0 0 0 1022.7 - 0.0
15/03:30am 9.1 8.7 8.3 95 0.4 CALM 0 0 0 0 1022.8 - 0.0
15/03:00am 9.8 9.4 8.1 89 0.8 CALM 0 0 0 0 1022.8 1022.7 0.0
15/02:30am 10.9 10.6 8.5 85 1.2 CALM 0 0 0 0 1023.0 - 0.0
15/02:00am 11.1 10.0 8.5 84 1.3 ESE 4 7 2 4 1023.1 - 0.0
15/01:30am 11.3 9.7 8.2 81 1.5 S 6 9 3 5 1023.2 - 0.0
15/01:00am 11.9 10.3 8.2 78 1.8 S 6 7 3 4 1023.2 - 0.0
15/12:30am 12.3 10.6 8.2 76 2.0 SSE 7 15 4 8 1023.2 - 0.0
15/12:00am 12.2 10.7 8.3 77 1.9 S 6 9 3 5 1023.2 1023.1 0.0
 
Date/Time
EST
Tmp

°C
App
Tmp
°C
Dew
Point
°C
Rel
Hum
%
Delta-T

°C
Wind Press
QNH
hPa
Press
MSL
hPa
Rain
since
9 am
mm
Dir
 
Spd
km/h
Gust
km/h
Spd
kts
Gust
kts
14/11:30pm 12.4 10.7 8.5 77 1.9 S 7 13 4 7 1023.3 - 0.0
14/11:00pm 12.7 11.1 8.8 77 2.0 SSE 7 11 4 6 1023.4 - 0.0
14/10:30pm 13.1 11.6 9.0 76 2.1 SSE 7 11 4 6 1023.5 - 0.0
14/10:00pm 13.5 12.0 9.2 75 2.2 SSE 7 15 4 8 1023.5 - 0.0
14/09:30pm 13.7 12.3 9.6 76 2.1 SSE 7 15 4 8 1023.4 - 0.0
14/09:00pm 14.2 12.4 9.6 74 2.4 S 9 15 5 8 1023.4 1023.3 0.0
14/08:30pm 14.5 12.3 9.3 71 2.7 S 11 22 6 12 1023.2 - 0.0
14/08:00pm 14.8 12.0 8.7 67 3.1 S 13 19 7 10 1023.1 - 0.0
14/07:30pm 15.3 12.4 8.3 63 3.5 S 13 22 7 12 1022.9 - 0.0
14/07:00pm 15.8 12.5 8.1 60 3.9 S 15 22 8 12 1022.8 - 0.0
14/06:30pm 16.2 13.0 8.4 60 4.0 S 15 22 8 12 1022.4 - 0.0
14/06:00pm 16.7 13.2 8.7 59 4.1 S 17 22 9 12 1022.0 1021.9 0.0
14/05:30pm 17.5 14.3 8.4 55 4.7 S 15 28 8 15 1021.7 - 0.0
14/05:00pm 18.3 15.3 6.2 45 6.0 S 11 20 6 11 1021.5 - 0.0
14/04:30pm 19.0 15.0 6.5 44 6.3 ESE 17 32 9 17 1021.5 - 0.0
14/04:00pm 19.7 16.4 6.4 42 6.7 SE 13 24 7 13 1021.4 - 0.0
14/03:30pm 19.7 16.8 6.4 42 6.7 SSE 11 24 6 13 1021.5 - 0.0
14/03:00pm 20.0 16.7 6.4 41 6.8 SSE 13 24 7 13 1021.4 1021.3 0.0
14/02:30pm 20.1 16.4 6.4 41 6.9 SE 15 26 8 14 1021.4 - 0.0
14/02:00pm 19.7 15.6 6.4 42 6.7 SE 17 35 9 19 1021.5 - 0.0
14/01:30pm 19.6 15.9 6.3 42 6.7 SE 15 26 8 14 1021.8 - 0.0
14/01:00pm 19.8 16.5 6.2 41 6.8 SE 13 24 7 13 1022.3 - 0.0
14/12:30pm 19.7 17.0 7.4 45 6.3 SE 11 20 6 11 1022.6 - 0.0
14/12:00pm 19.1 16.1 7.8 48 5.8 SSE 13 24 7 13 1022.9 1022.8 0.0
14/11:30am 18.6 15.4 8.3 51 5.3 ESE 15 26 8 14 1023.2 - 0.0
14/11:00am 17.8 15.7 9.9 60 4.2 SE 11 20 6 11 1023.4 - 0.0
14/10:30am 17.2 14.9 10.6 65 3.5 SSE 13 30 7 16 1023.5 - 0.0
14/10:00am 16.1 13.5 10.6 70 2.9 SE 15 28 8 15 1023.5 - 0.0
14/09:30am 15.5 13.4 11.3 76 2.3 SSE 13 20 7 11 1023.5 - 0.0
14/09:00am 14.5 12.4 11.3 81 1.7 SSE 13 30 7 16 1023.6 1023.5 0.0
14/08:30am 13.3 11.8 11.9 91 0.8 S 11 17 6 9 1023.5 - 0.0
14/08:00am 11.7 10.1 11.5 99 0.1 S 11 15 6 8 1023.3 - 0.0
14/07:30am 10.1 9.0 10.1 100 0.0 SW 6 7 3 4 1023.0 - 0.0
14/07:00am 9.3 8.4 9.3 100 0.0 S 4 7 2 4 1022.7 - 0.0
14/06:30am 9.9 8.8 9.9 100 0.0 SSW 6 9 3 5 1022.4 - 0.0
14/06:00am 9.5 8.3 9.4 99 0.0 S 6 7 3 4 1022.4 1022.3 0.0
14/05:30am 10.2 10.3 10.0 99 0.1 CALM 0 0 0 0 1022.2 - 0.0
14/05:00am 10.3 10.0 10.1 99 0.1 ENE 2 6 1 3 1022.4 - 0.0
14/04:30am 11.0 10.1 10.8 99 0.1 SE 6 9 3 5 1022.1 - 0.0
14/04:00am 11.2 10.4 11.0 99 0.1 SSE 6 9 3 5 1022.1 - 0.0
14/03:30am 11.1 10.6 10.9 99 0.1 SE 4 7 2 4 1022.0 - 0.0
14/03:00am 11.1 10.6 10.9 99 0.1 SE 4 11 2 6 1021.9 1021.8 0.0
14/02:30am 11.1 10.6 10.9 99 0.1 S 4 9 2 5 1021.9 - 0.0
14/02:00am 11.3 10.2 10.8 97 0.3 S 7 9 4 5 1022.1 - 0.0
14/01:30am 11.2 10.1 10.6 96 0.3 SSW 7 9 4 5 1022.1 - 0.0
14/01:00am 11.6 11.1 10.7 94 0.5 SSW 4 6 2 3 1021.9 - 0.0
14/12:30am 11.7 11.5 10.3 91 0.7 SE 2 6 1 3 1021.7 - 0.0
14/12:00am 12.2 12.0 10.3 88 1.0 SSE 2 7 1 4 1021.8 1021.7 0.0
 
Date/Time
EST
Tmp

°C
App
Tmp
°C
Dew
Point
°C
Rel
Hum
%
Delta-T

°C
Wind Press
QNH
hPa
Press
MSL
hPa
Rain
since
9 am
mm
Dir
 
Spd
km/h
Gust
km/h
Spd
kts
Gust
kts
13/11:30pm 12.5 10.9 10.2 86 1.2 S 9 13 5 7 1022.0 - 0.0
13/11:00pm 12.7 11.5 9.7 82 1.5 SSW 6 9 3 5 1022.2 - 0.0
13/10:30pm 13.3 11.6 9.9 80 1.8 SSW 9 13 5 7 1022.4 - 0.0
13/10:00pm 13.7 12.4 9.9 78 2.0 S 7 11 4 6 1022.3 - 0.0
13/09:30pm 14.0 12.7 9.8 76 2.2 SSE 7 11 4 6 1022.2 - 0.0
13/09:00pm 14.2 13.1 9.8 75 2.3 SSE 6 9 3 5 1022.2 1022.1 0.0
13/08:30pm 14.7 13.4 9.9 73 2.5 SE 7 13 4 7 1022.1 - 0.0

Latest Capital City Observations: Canberra | Sydney | Melbourne | Brisbane | Adelaide | Perth | Hobart | Darwin

Other Formats:

Comma delimited format used in spreadsheet applications
http://www.bom.gov.au/fwo/IDV60901/IDV60901.95874.axf

JavaScript Object Notation format (JSON) in row-major order
http://www.bom.gov.au/fwo/IDV60901/IDV60901.95874.json